Time;durP1;ratioP1;P1;durP2;ratioP2;P2;SDS_P1;SDS_P2;PMS_P1;PMS_P2;Temp;Humidity;BMP_temperature;BMP_pressure;BME280_temperature;BME280_humidity;BME280_pressure;Samples;Min_cycle;Max_cycle;Signal;HPM_P1;HPM_P2
2022/10/05 00:01:40;;;;;;;12.97;6.57;;;;;;;14.85;100.00;101572.59;5020960;28;20542;-70
2022/10/05 00:04:14;;;;;;;8.03;5.50;;;;;;;14.17;100.00;101457.53;5017221;28;20467;-70
2022/10/05 00:06:40;;;;;;;7.60;6.07;;;;;;;14.64;100.00;101541.25;5025032;28;20275;-71
2022/10/05 00:09:17;;;;;;;9.10;6.20;;;;;;;14.44;100.00;101525.84;5019643;28;20443;-70
2022/10/05 00:11:44;;;;;;;8.23;5.97;;;;;;;14.57;100.00;101543.13;5015709;28;20443;-69
2022/10/05 00:14:17;;;;;;;7.07;6.00;;;;;;;14.87;100.00;101581.34;5012346;28;20482;-70
2022/10/05 00:16:42;;;;;;;8.70;6.00;;;;;;;14.71;100.00;101557.44;5015929;28;20471;-72
2022/10/05 00:19:21;;;;;;;11.37;6.60;;;;;;;14.85;100.00;101567.22;5011539;28;20452;-70
2022/10/05 00:21:47;;;;;;;7.10;5.63;;;;;;;14.31;100.00;101501.56;5010846;28;20322;-70
2022/10/05 00:24:16;;;;;;;8.43;6.50;;;;;;;14.88;100.00;101589.22;5016553;28;20979;-70
2022/10/05 00:26:42;;;;;;;9.63;6.77;;;;;;;14.76;100.00;101569.28;5012388;28;20281;-72
2022/10/05 00:29:19;;;;;;;7.67;6.40;;;;;;;14.89;100.00;101590.88;5014521;28;20447;-69
2022/10/05 00:31:44;;;;;;;10.13;6.97;;;;;;;14.77;100.00;101557.44;5015224;28;20189;-70
2022/10/05 00:34:10;;;;;;;8.23;6.03;;;;;;;14.94;100.00;101581.31;5012694;28;20469;-70
2022/10/05 00:36:38;;;;;;;9.43;6.20;;;;;;;14.92;100.00;101574.25;5019459;28;20678;-69
2022/10/05 00:39:03;;;;;;;12.80;6.70;;;;;;;14.92;100.00;101568.84;5016019;28;20204;-70
2022/10/05 00:41:37;;;;;;;12.53;6.63;;;;;;;14.69;100.00;101552.25;5019501;28;20824;-70
2022/10/05 00:44:14;;;;;;;13.13;7.83;;;;;;;14.94;100.00;101565.94;5013462;28;20682;-70
2022/10/05 00:47:06;;;;;;;8.30;6.20;;;;;;;14.72;100.00;101527.53;5015917;28;20434;-70
2022/10/05 00:49:47;;;;;;;9.03;6.67;;;;;;;14.92;100.00;101541.00;5016042;28;20452;-70
2022/10/05 00:52:22;;;;;;;8.27;5.53;;;;;;;14.90;100.00;101537.72;5016892;28;20882;-71
2022/10/05 00:55:16;;;;;;;6.70;6.00;;;;;;;14.92;100.00;101535.59;5014770;28;20453;-71
2022/10/05 00:58:04;;;;;;;8.00;5.80;;;;;;;14.92;100.00;101541.81;5017776;28;21613;-70
2022/10/05 01:00:34;;;;;;;8.77;6.67;;;;;;;14.74;100.00;101511.13;4983991;28;20452;-71
2022/10/05 01:03:33;;;;;;;10.03;6.00;;;;;;;14.89;100.00;101533.31;5011130;28;20491;-70
2022/10/05 01:06:06;;;;;;;6.70;5.90;;;;;;;14.85;100.00;101522.13;5013294;28;20445;-71
2022/10/05 01:08:40;;;;;;;6.40;5.80;;;;;;;14.88;100.00;101508.19;5012906;28;20438;-70
2022/10/05 01:11:26;;;;;;;8.63;5.90;;;;;;;14.67;100.00;101479.56;5013343;28;20928;-71
2022/10/05 01:14:40;;;;;;;8.13;5.80;;;;;;;14.94;100.00;101506.50;5008637;28;21036;-70
2022/10/05 01:17:21;;;;;;;11.60;5.47;;;;;;;14.85;100.00;101495.09;4941583;28;21095;-71
2022/10/05 01:20:10;;;;;;;7.33;5.40;;;;;;;14.61;100.00;101458.81;5026905;28;20454;-70
2022/10/05 01:23:10;;;;;;;12.00;7.00;;;;;;;14.97;100.00;101498.00;5007806;28;20509;-70
2022/10/05 01:25:54;;;;;;;9.33;5.13;;;;;;;13.28;100.00;101242.28;5011225;28;20945;-70
2022/10/05 01:28:52;;;;;;;6.40;4.70;;;;;;;14.67;100.00;101457.16;5011123;28;20446;-71
2022/10/05 01:31:27;;;;;;;8.97;4.93;;;;;;;14.43;100.00;101418.91;5009664;28;20474;-71
2022/10/05 01:34:30;;;;;;;8.60;5.50;;;;;;;14.92;100.00;101504.00;5011692;28;20470;-71
2022/10/05 01:37:01;;;;;;;8.23;5.97;;;;;;;14.90;100.00;101499.88;5011407;28;20466;-71
2022/10/05 01:39:42;;;;;;;9.37;5.47;;;;;;;14.77;100.00;101473.72;5015668;28;20447;-71
2022/10/05 01:42:23;;;;;;;8.47;4.70;;;;;;;14.92;100.00;101492.38;5018704;28;20450;-70
2022/10/05 01:44:54;;;;;;;5.50;4.90;;;;;;;14.92;100.00;101516.69;5020147;28;20446;-70
2022/10/05 01:47:40;;;;;;;8.67;5.37;;;;;;;13.95;100.00;101356.31;5001084;23;1153236;-74
2022/10/05 01:50:37;;;;;;;7.97;5.00;;;;;;;14.93;100.00;101485.97;5047370;28;20237;-75
2022/10/05 01:53:30;;;;;;;11.07;5.63;;;;;;;14.88;100.00;101486.59;5038928;28;20425;-74
2022/10/05 01:56:08;;;;;;;7.20;4.90;;;;;;;12.62;100.00;101141.53;5048432;28;20457;-75
2022/10/05 01:58:57;;;;;;;13.00;5.03;;;;;;;14.90;100.00;101479.09;5024982;28;26661;-74
2022/10/05 02:01:37;;;;;;;8.57;5.23;;;;;;;13.57;100.00;101287.69;5027187;28;20441;-74
2022/10/05 02:04:16;;;;;;;6.03;4.33;;;;;;;12.67;100.00;101124.78;5045193;28;20591;-74
2022/10/05 02:06:46;;;;;;;6.97;4.70;;;;;;;13.77;100.00;101284.97;5045154;28;20422;-75
2022/10/05 02:09:27;;;;;;;5.27;4.67;;;;;;;14.90;100.00;101486.38;5046544;28;20441;-75
2022/10/05 02:11:58;;;;;;;7.07;4.37;;;;;;;14.81;100.00;101477.69;5045096;28;20444;-74
2022/10/05 02:14:32;;;;;;;10.20;4.67;;;;;;;13.22;100.00;101221.50;5039183;28;20430;-72
2022/10/05 02:17:04;;;;;;;6.00;4.50;;;;;;;13.43;100.00;101252.88;5045944;28;20544;-72
2022/10/05 02:19:37;;;;;;;5.43;4.30;;;;;;;14.14;100.00;101374.34;5027071;28;20438;-73
2022/10/05 02:22:07;;;;;;;8.67;4.23;;;;;;;12.56;100.00;101088.53;5026859;28;20532;-72
2022/10/05 02:24:50;;;;;;;5.13;3.90;;;;;;;14.56;100.00;101403.78;5027122;28;20442;-72
2022/10/05 02:27:24;;;;;;;6.90;4.30;;;;;;;14.50;100.00;101391.94;5043910;28;20453;-72
2022/10/05 02:29:55;;;;;;;6.10;4.73;;;;;;;14.20;100.00;101348.38;5045910;28;20459;-73
2022/10/05 02:32:24;;;;;;;8.13;4.27;;;;;;;14.69;100.00;101415.41;5028357;28;20950;-73
2022/10/05 02:34:49;;;;;;;5.83;4.07;;;;;;;14.15;100.00;101357.13;5047371;28;20453;-71
2022/10/05 02:37:36;;;;;;;7.10;4.73;;;;;;;14.86;100.00;101453.53;5047973;28;20799;-73
2022/10/05 02:40:28;;;;;;;5.60;3.90;;;;;;;14.63;100.00;101424.31;5046009;28;20187;-73
2022/10/05 02:43:07;;;;;;;7.03;4.13;;;;;;;14.86;100.00;101460.81;5041191;28;20442;-74
2022/10/05 02:45:47;;;;;;;7.37;4.70;;;;;;;14.88;100.00;101453.34;5049354;28;20504;-73
2022/10/05 02:49:04;;;;;;;5.50;4.20;;;;;;;14.81;100.00;101453.38;5048618;28;20454;-74
2022/10/05 02:51:53;;;;;;;6.27;4.43;;;;;;;14.74;100.00;101446.31;5015606;28;20426;-74
2022/10/05 02:54:19;;;;;;;7.03;4.20;;;;;;;14.81;100.00;101450.66;5028812;28;20930;-74
2022/10/05 02:56:57;;;;;;;7.37;4.43;;;;;;;14.83;100.00;101450.44;5047059;28;20468;-73
2022/10/05 02:59:33;;;;;;;6.57;4.93;;;;;;;14.80;100.00;101459.78;5024887;28;20234;-74
2022/10/05 03:02:21;;;;;;;9.73;4.63;;;;;;;14.34;100.00;101382.41;5038112;28;20476;-73
2022/10/05 03:05:10;;;;;;;8.37;5.10;;;;;;;13.97;100.00;101332.66;5037209;28;20962;-73
2022/10/05 03:08:05;;;;;;;8.30;4.47;;;;;;;14.72;100.00;101443.81;5039094;28;20536;-74
2022/10/05 03:10:41;;;;;;;5.70;4.17;;;;;;;14.10;100.00;101351.53;5018943;28;20445;-74
2022/10/05 03:13:15;;;;;;;8.23;5.07;;;;;;;14.73;100.00;101442.78;5026866;28;20438;-74
2022/10/05 03:15:47;;;;;;;9.40;4.77;;;;;;;14.73;100.00;101448.19;5043830;28;20890;-74
2022/10/05 03:18:28;;;;;;;7.50;5.10;;;;;;;14.72;100.00;101446.50;5026722;28;20974;-74
2022/10/05 03:21:49;;;;;;;6.10;4.80;;;;;;;14.39;100.00;101403.38;5042286;28;20437;-74
2022/10/05 03:24:36;;;;;;;5.30;4.43;;;;;;;14.71;100.00;101444.03;4941332;28;20450;-74
2022/10/05 03:27:20;;;;;;;8.23;5.50;;;;;;;14.68;100.00;101443.41;5020185;28;20426;-73
2022/10/05 03:29:57;;;;;;;7.23;5.30;;;;;;;14.71;100.00;101434.06;5043324;28;20433;-75
2022/10/05 03:32:34;;;;;;;8.77;5.80;;;;;;;14.67;100.00;101441.75;5022633;28;20444;-75
2022/10/05 03:35:22;;;;;;;6.47;5.30;;;;;;;14.66;100.00;101440.09;5035978;28;20456;-74
2022/10/05 03:37:59;;;;;;;9.93;7.17;;;;;;;13.73;100.00;101296.38;5012299;28;20461;-75
2022/10/05 03:40:33;;;;;;;9.00;6.50;;;;;;;14.62;100.00;101443.44;5033284;28;20438;-74
2022/10/05 03:43:15;;;;;;;9.07;6.40;;;;;;;14.62;100.00;101430.75;5041184;28;21024;-74
2022/10/05 03:46:01;;;;;;;7.77;6.67;;;;;;;14.62;100.00;101427.25;5037539;28;20438;-75
2022/10/05 03:48:56;;;;;;;7.37;5.30;;;;;;;13.97;100.00;101332.66;5021221;28;20457;-74
2022/10/05 03:51:30;;;;;;;6.67;5.87;;;;;;;14.67;100.00;101430.16;5032641;28;20449;-75
2022/10/05 03:54:28;;;;;;;9.27;6.50;;;;;;;14.58;100.00;101432.25;5034939;28;20880;-75
2022/10/05 03:57:15;;;;;;;7.77;6.70;;;;;;;13.46;100.00;101242.50;5028872;28;20469;-74
2022/10/05 03:59:47;;;;;;;7.80;6.30;;;;;;;13.95;100.00;101313.19;5037901;28;20426;-74
2022/10/05 04:02:39;;;;;;;11.40;7.00;;;;;;;14.48;100.00;101384.03;5021380;28;20500;-74
2022/10/05 04:05:15;;;;;;;7.30;5.30;;;;;;;13.86;100.00;101292.84;5030841;28;20427;-74
2022/10/05 04:07:56;;;;;;;8.20;6.20;;;;;;;14.67;100.00;101413.94;5043908;28;20458;-74
2022/10/05 04:10:27;;;;;;;10.00;6.80;;;;;;;14.65;100.00;101403.34;5044316;28;20460;-74
2022/10/05 04:13:01;;;;;;;9.17;6.20;;;;;;;14.63;100.00;101402.72;5041761;28;20442;-74
2022/10/05 04:15:41;;;;;;;8.10;6.57;;;;;;;14.65;100.00;101406.03;5042729;28;20438;-74
2022/10/05 04:18:22;;;;;;;7.37;5.90;;;;;;;14.71;100.00;101401.66;5039005;28;22456;-74
2022/10/05 04:20:55;;;;;;;7.20;5.63;;;;;;;14.63;100.00;101402.72;5041557;28;20892;-75
2022/10/05 04:23:46;;;;;;;8.37;6.10;;;;;;;14.57;100.00;101406.25;5042906;28;20437;-75
2022/10/05 04:26:23;;;;;;;9.80;6.20;;;;;;;14.66;100.00;101396.88;5042941;28;20434;-75
2022/10/05 04:29:10;;;;;;;9.23;6.10;;;;;;;13.85;100.00;101285.78;5042392;28;20465;-75
2022/10/05 04:32:07;;;;;;;8.13;5.80;;;;;;;14.66;100.00;101399.59;5037048;28;20488;-74
2022/10/05 04:34:44;;;;;;;8.50;5.60;;;;;;;14.64;100.00;101406.28;5046653;28;20401;-73
2022/10/05 04:37:48;;;;;;;6.07;5.40;;;;;;;14.08;100.00;101294.25;5026048;28;20896;-74
2022/10/05 04:40:20;;;;;;;7.57;5.40;;;;;;;13.74;100.00;101255.75;5043246;28;20461;-75
2022/10/05 04:43:08;;;;;;;6.10;5.20;;;;;;;14.62;100.00;101384.88;5038703;28;20438;-74
2022/10/05 04:45:52;;;;;;;7.93;5.50;;;;;;;14.65;100.00;101372.81;5012762;28;20814;-73
2022/10/05 04:48:29;;;;;;;7.17;4.90;;;;;;;14.63;100.00;101375.72;5031636;28;20474;-74
2022/10/05 04:51:25;;;;;;;8.77;5.50;;;;;;;14.64;100.00;101363.06;5023932;28;20942;-73
2022/10/05 04:53:57;;;;;;;8.70;5.20;;;;;;;14.45;100.00;101343.97;5037012;28;20491;-74
2022/10/05 04:56:37;;;;;;;8.87;5.50;;;;;;;14.61;100.00;101368.88;5035650;28;20474;-74
2022/10/05 04:59:20;;;;;;;6.37;5.43;;;;;;;14.58;100.00;101359.34;5041907;28;20512;-74
2022/10/05 05:02:02;;;;;;;7.07;5.83;;;;;;;14.60;100.00;101361.81;5040657;28;20468;-73
2022/10/05 05:04:46;;;;;;;11.47;5.80;;;;;;;14.58;100.00;101370.16;5019231;28;20442;-74
2022/10/05 05:07:27;;;;;;;6.83;5.33;;;;;;;14.60;100.00;101372.63;5020389;28;20834;-74
2022/10/05 05:10:11;;;;;;;7.00;5.67;;;;;;;14.04;100.00;101268.75;5041312;28;20472;-73
2022/10/05 05:12:44;;;;;;;7.90;6.07;;;;;;;13.93;100.00;101248.66;5039758;28;20437;-73
2022/10/05 05:15:28;;;;;;;10.47;5.47;;;;;;;14.55;100.00;101351.69;5041868;28;20438;-74
2022/10/05 05:18:01;;;;;;;8.80;6.10;;;;;;;14.55;100.00;101354.38;5028355;28;20478;-73
2022/10/05 05:21:04;;;;;;;6.97;5.60;;;;;;;14.23;100.00;101323.69;5044128;28;20458;-73
2022/10/05 05:23:36;;;;;;;6.93;5.20;;;;;;;14.57;100.00;101349.56;5030194;28;20445;-74
2022/10/05 05:26:15;;;;;;;6.20;5.40;;;;;;;13.88;100.00;101253.00;5029375;28;20507;-73
2022/10/05 05:28:59;;;;;;;8.30;5.97;;;;;;;14.45;100.00;101349.38;5044117;28;20457;-74
2022/10/05 05:31:45;;;;;;;7.83;5.80;;;;;;;14.53;100.00;101359.16;5042142;28;20446;-73
2022/10/05 05:34:26;;;;;;;9.10;6.40;;;;;;;14.54;100.00;101357.28;5031202;28;20445;-73
2022/10/05 05:37:06;;;;;;;7.30;5.63;;;;;;;13.82;100.00;101254.69;5043859;28;20499;-73
2022/10/05 05:40:04;;;;;;;6.80;5.93;;;;;;;14.48;100.00;101362.44;5043459;28;20449;-73
2022/10/05 05:43:07;;;;;;;6.50;5.40;;;;;;;14.48;100.00;101350.81;5041308;28;20441;-73
2022/10/05 05:45:40;;;;;;;7.10;6.20;;;;;;;14.43;100.00;101369.50;5041307;28;20718;-74
2022/10/05 05:48:28;;;;;;;8.67;7.00;;;;;;;14.35;100.00;101367.88;5023603;28;20553;-73
2022/10/05 05:51:10;;;;;;;6.87;6.00;;;;;;;14.43;100.00;101342.53;5016860;28;20441;-73
2022/10/05 05:53:42;;;;;;;9.80;6.27;;;;;;;13.79;100.00;101277.50;5047520;28;20434;-74
2022/10/05 05:56:23;;;;;;;9.40;6.57;;;;;;;14.47;100.00;101376.16;5045877;28;20481;-73
2022/10/05 05:59:14;;;;;;;9.70;6.80;;;;;;;13.77;100.00;101236.44;5024871;28;20972;-73
2022/10/05 06:01:48;;;;;;;8.13;7.10;;;;;;;13.37;100.00;101187.16;5044809;28;20499;-74
2022/10/05 06:04:33;;;;;;;8.53;7.50;;;;;;;14.47;100.00;101349.19;5045178;28;20441;-74
2022/10/05 06:07:01;;;;;;;11.00;6.33;;;;;;;14.48;100.00;101362.44;5043772;28;20435;-73
2022/10/05 06:09:45;;;;;;;10.07;7.77;;;;;;;13.68;100.00;101236.88;5046920;28;20437;-73
2022/10/05 06:12:21;;;;;;;8.43;7.27;;;;;;;13.57;100.00;101214.09;5037889;28;20927;-73
2022/10/05 06:14:53;;;;;;;7.80;6.17;;;;;;;13.83;100.00;101277.94;5040432;28;20436;-74
2022/10/05 06:17:41;;;;;;;8.57;6.43;;;;;;;13.22;100.00;101162.25;5015795;28;21025;-74
2022/10/05 06:20:18;;;;;;;11.50;7.33;;;;;;;14.11;100.00;101311.88;5033025;28;20434;-74
2022/10/05 06:22:45;;;;;;;8.97;6.10;;;;;;;14.09;100.00;101312.13;5043893;28;20541;-73
2022/10/05 06:25:11;;;;;;;9.50;7.47;;;;;;;14.43;100.00;101351.44;5029826;28;20535;-73
2022/10/05 06:27:56;;;;;;;7.80;6.63;;;;;;;13.64;100.00;101249.13;5046216;28;20461;-75
2022/10/05 06:30:22;;;;;;;9.50;6.67;;;;;;;13.59;100.00;101244.34;5041848;28;20187;-74
2022/10/05 06:33:09;;;;;;;11.00;7.00;;;;;;;14.41;100.00;101363.53;5031121;28;20446;-73
2022/10/05 06:35:53;;;;;;;7.70;6.80;;;;;;;14.41;100.00;101372.44;5044966;28;20430;-73
2022/10/05 06:38:46;;;;;;;9.27;7.03;;;;;;;14.39;100.00;101369.13;5041982;28;20504;-74
2022/10/05 06:41:32;;;;;;;8.80;6.77;;;;;;;14.39;100.00;101379.91;5044455;28;20435;-73
2022/10/05 06:44:07;;;;;;;7.33;6.53;;;;;;;13.54;100.00;101253.06;5045236;28;20433;-73
2022/10/05 06:46:52;;;;;;;10.60;7.53;;;;;;;13.59;100.00;101259.69;5026935;28;20437;-73
2022/10/05 06:49:31;;;;;;;8.90;6.53;;;;;;;14.22;100.00;101357.94;5028322;28;20461;-73
2022/10/05 06:52:24;;;;;;;8.83;7.77;;;;;;;14.28;100.00;101375.16;5038385;28;20430;-74
2022/10/05 06:55:08;;;;;;;11.90;7.93;;;;;;;14.29;100.00;101371.44;5043131;28;20426;-74
2022/10/05 06:58:11;;;;;;;13.40;8.47;;;;;;;14.25;100.00;101380.97;5041851;28;20479;-74
2022/10/05 07:00:57;;;;;;;9.97;7.60;;;;;;;14.05;100.00;101347.78;5043921;28;20518;-73
2022/10/05 07:03:53;;;;;;;10.97;7.70;;;;;;;14.21;100.00;101375.16;5043946;28;20530;-74
2022/10/05 07:06:57;;;;;;;9.57;7.93;;;;;;;13.56;100.00;101272.53;5046076;28;20935;-74
2022/10/05 07:09:23;;;;;;;10.57;8.07;;;;;;;14.20;100.00;101364.56;5044825;28;20450;-73
2022/10/05 07:12:06;;;;;;;9.63;8.63;;;;;;;14.08;100.00;101342.81;5046098;28;20453;-74
2022/10/05 07:14:38;;;;;;;12.70;8.87;;;;;;;13.45;100.00;101240.00;5043226;28;20615;-74
2022/10/05 07:17:26;;;;;;;9.43;7.87;;;;;;;14.23;100.00;101373.09;5043527;28;20531;-74
2022/10/05 07:20:19;;;;;;;11.53;7.97;;;;;;;14.25;100.00;101365.59;5046544;28;20430;-74
2022/10/05 07:22:59;;;;;;;10.20;8.90;;;;;;;14.19;100.00;101354.84;5044210;28;20445;-73
2022/10/05 07:25:35;;;;;;;12.80;8.87;;;;;;;14.01;100.00;101337.44;5043181;28;20441;-73
2022/10/05 07:28:22;;;;;;;10.07;8.00;;;;;;;14.27;100.00;101369.97;5044217;28;20635;-74
2022/10/05 07:31:01;;;;;;;11.17;7.87;;;;;;;14.29;100.00;101376.84;5038117;28;20913;-73
2022/10/05 07:33:34;;;;;;;12.50;8.20;;;;;;;13.54;100.00;101246.84;5045792;28;20484;-74
2022/10/05 07:39:26;;;;;;;10.00;7.97;;;;;;;14.37;100.00;101370.34;5045743;28;20587;-74
2022/10/05 07:42:17;;;;;;;9.73;8.20;;;;;;;14.44;100.00;101374.72;5037797;28;20934;-74
2022/10/05 07:44:52;;;;;;;10.03;6.87;;;;;;;14.29;100.00;101346.28;5000165;28;20450;-73
2022/10/05 07:47:26;;;;;;;9.80;7.67;;;;;;;14.29;100.00;101346.28;5036571;28;20552;-74
2022/10/05 07:49:57;;;;;;;9.47;7.43;;;;;;;12.30;100.00;101054.38;5038528;22;21421;-91
2022/10/05 07:52:28;;;;;;;10.23;8.10;;;;;;;14.49;100.00;101390.25;5042078;28;20450;-90
2022/10/05 07:55:17;;;;;;;18.73;8.37;;;;;;;12.38;100.00;101043.41;5042128;28;20499;-82
2022/10/05 07:58:01;;;;;;;7.40;6.60;;;;;;;14.59;100.00;101352.06;5041864;28;20470;-91
2022/10/05 08:00:46;;;;;;;9.63;6.50;;;;;;;14.59;100.00;101355.59;5045752;28;20477;-86
2022/10/05 08:03:26;;;;;;;11.87;6.83;;;;;;;13.23;100.00;101121.66;5020736;28;20440;-89
2022/10/05 08:05:52;;;;;;;9.03;6.37;;;;;;;13.95;100.00;101278.13;5045711;28;20445;-87
2022/10/05 08:08:21;;;;;;;9.13;7.20;;;;;;;13.29;100.00;101161.25;5041723;28;20446;-89
2022/10/05 08:11:01;;;;;;;9.00;7.00;;;;;;;14.56;100.00;101317.41;5041601;28;20200;-81
2022/10/05 08:13:50;;;;;;;7.57;6.50;;;;;;;14.70;100.00;101335.22;5042340;28;20438;-85
2022/10/05 08:16:16;;;;;;;7.07;6.13;;;;;;;13.78;100.00;101204.94;5044793;28;20473;-91
2022/10/05 08:18:53;;;;;;;9.17;7.10;;;;;;;12.58;100.00;100975.31;5020514;28;20450;-89
2022/10/05 08:21:26;;;;;;;7.03;6.20;;;;;;;14.01;100.00;101204.44;5026199;28;20842;-85
2022/10/05 08:23:57;;;;;;;8.57;6.63;;;;;;;12.62;100.00;101038.44;5044478;28;20450;-82
2022/10/05 08:26:41;;;;;;;12.00;6.70;;;;;;;14.71;100.00;101338.75;5021024;28;20449;-83
2022/10/05 08:29:32;;;;;;;7.13;6.43;;;;;;;13.80;100.00;101216.34;5019801;28;20434;-85
2022/10/05 08:32:02;;;;;;;12.43;6.40;;;;;;;14.74;100.00;101381.50;5039502;28;20461;-86
2022/10/05 08:34:44;;;;;;;8.20;6.77;;;;;;;14.79;100.00;101373.59;5028539;28;20450;-94
2022/10/05 08:37:22;;;;;;;7.23;6.30;;;;;;;13.89;100.00;101184.59;5027168;28;21033;-90
2022/10/05 08:40:09;;;;;;;8.20;6.87;;;;;;;14.78;100.00;101331.44;5043850;28;20519;-90
2022/10/05 08:43:00;;;;;;;8.93;6.53;;;;;;;14.73;100.00;101345.59;5023258;28;20442;-93
2022/10/05 08:45:47;;;;;;;6.63;6.00;;;;;;;12.62;100.00;101004.28;5013731;28;20462;-84
2022/10/05 08:48:45;;;;;;;8.97;6.17;;;;;;;14.84;100.00;101320.63;5038659;28;20517;-91
2022/10/05 08:51:48;;;;;;;7.40;6.07;;;;;;;14.86;100.00;101318.50;5025088;28;20465;-88
2022/10/05 08:54:29;;;;;;;8.57;6.37;;;;;;;14.90;100.00;101316.22;5006627;28;20451;-88
2022/10/05 08:57:04;;;;;;;7.37;5.83;;;;;;;14.95;100.00;101307.47;5041743;28;20493;-80
2022/10/05 09:00:07;;;;;;;7.20;5.40;;;;;;;15.04;100.00;101304.31;5044922;28;20592;-85
2022/10/05 09:02:45;;;;;;;10.33;6.20;;;;;;;15.00;100.00;101319.28;5040816;28;20463;-83
2022/10/05 09:05:29;;;;;;;7.10;5.90;;;;;;;15.11;100.00;101304.25;5041392;28;20448;-89
2022/10/05 09:08:04;;;;;;;7.97;6.33;;;;;;;15.04;100.00;101295.34;5023119;28;20505;-88
2022/10/05 09:10:58;;;;;;;10.03;7.20;;;;;;;15.12;100.00;101295.91;5036830;28;21129;-87
2022/10/05 09:13:45;;;;;;;7.00;5.87;;;;;;;15.08;100.00;101302.81;5012646;28;20446;-88
2022/10/05 09:16:41;;;;;;;6.60;5.97;;;;;;;15.22;100.00;101287.34;5037213;28;20507;-85
2022/10/05 09:19:44;;;;;;;6.90;5.80;;;;;;;15.30;100.00;101297.91;5042694;28;20945;-91
2022/10/05 09:22:44;;;;;;;9.37;6.33;;;;;;;15.23;100.00;101288.16;5029433;28;20426;-87
2022/10/05 09:25:38;;;;;;;7.20;6.50;;;;;;;14.76;100.00;101199.34;5044780;28;20431;-88
2022/10/05 09:28:17;;;;;;;8.17;6.60;;;;;;;15.27;100.00;101281.28;5027017;28;21082;-87
2022/10/05 09:31:07;;;;;;;8.07;6.67;;;;;;;15.40;100.00;101273.06;5047141;28;20466;-85
2022/10/05 09:34:11;;;;;;;10.57;6.13;;;;;;;13.64;100.00;100969.63;5030504;28;20450;-89
2022/10/05 09:37:05;;;;;;;10.20;6.00;;;;;;;15.61;100.00;101271.84;5047299;28;20954;-90
2022/10/05 09:39:54;;;;;;;6.93;6.00;;;;;;;15.67;100.00;101273.66;5025358;28;20421;-91
2022/10/05 09:42:50;;;;;;;7.33;6.40;;;;;;;15.69;100.00;101263.50;5043718;28;20469;-91
2022/10/05 09:45:36;;;;;;;10.03;5.90;;;;;;;13.17;100.00;100882.78;5022636;28;20515;-83
2022/10/05 09:48:02;;;;;;;7.30;5.77;;;;;;;15.62;100.00;101257.28;5022924;28;21009;-89
2022/10/05 09:50:36;;;;;;;9.10;4.60;;;;;;;15.18;100.00;101188.00;5027136;28;20545;-88
2022/10/05 09:53:18;;;;;;;7.63;4.70;;;;;;;14.06;100.00;101026.63;5024965;28;20651;-93
2022/10/05 09:56:22;;;;;;;6.90;5.20;;;;;;;15.04;100.00;101190.84;5030062;28;20422;-90
2022/10/05 09:59:26;;;;;;;8.70;4.57;;;;;;;15.58;100.00;101310.97;5023992;28;21163;-88
2022/10/05 10:02:05;;;;;;;9.70;4.23;;;;;;;14.32;100.00;101062.53;5024267;28;20445;-87
2022/10/05 10:04:47;;;;;;;5.23;4.47;;;;;;;15.70;100.00;101259.72;5031301;28;20520;-88
2022/10/05 10:07:33;;;;;;;4.70;3.87;;;;;;;15.74;100.00;101288.00;5048506;28;20418;-93
2022/10/05 10:10:04;;;;;;;8.80;3.80;;;;;;;15.85;100.00;101250.44;5050123;28;20464;-91
2022/10/05 10:12:35;;;;;;;6.87;4.67;;;;;;;15.78;100.00;101258.63;5049465;28;20425;-83
2022/10/05 10:15:31;;;;;;;7.27;4.73;;;;;;;15.81;100.00;101252.78;5049612;28;20467;-89
2022/10/05 10:18:17;;;;;;;5.67;4.50;;;;;;;14.39;100.00;101045.28;5044790;28;20466;-84
2022/10/05 10:20:45;;;;;;;6.93;2.80;;;;;;;16.02;100.00;101254.22;5049979;28;20458;-89
2022/10/05 10:23:33;;;;;;;4.30;3.20;;;;;;;15.91;100.00;101253.09;5050585;28;20422;-88
2022/10/05 10:26:02;;;;;;;8.43;3.60;;;;;;;15.91;100.00;101238.72;5032293;28;20430;-87
2022/10/05 10:28:45;;;;;;;5.33;3.93;;;;;;;15.89;100.00;101236.25;5048819;28;20430;-88
2022/10/05 10:31:17;;;;;;;4.90;3.37;;;;;;;15.87;100.00;101237.53;5048527;28;20938;-86
2022/10/05 10:34:01;;;;;;;12.33;3.30;;;;;;;14.40;100.00;101019.94;5033007;28;20923;-89
2022/10/05 10:36:32;;;;;;;4.30;3.20;;;;;;;15.96;100.00;101239.69;5044366;28;20507;-89
2022/10/05 10:39:38;;;;;;;3.03;2.50;;;;;;;15.95;100.00;101256.16;5032706;28;20472;-91
2022/10/05 10:42:40;;;;;;;6.57;2.80;;;;;;;14.74;100.00;101050.22;5011172;28;20824;-93
2022/10/05 10:45:38;;;;;;;4.97;2.83;;;;;;;15.91;100.00;101236.88;5009997;28;20904;-88
2022/10/05 10:48:10;;;;;;;4.10;2.93;;;;;;;13.91;100.00;100947.88;5030427;28;20514;-86
2022/10/05 10:51:00;;;;;;;7.00;2.40;;;;;;;15.93;100.00;101223.91;5033129;28;20469;-92
2022/10/05 10:53:25;;;;;;;6.17;2.97;;;;;;;15.90;100.00;101228.97;5022616;28;20445;-87
2022/10/05 10:56:06;;;;;;;2.97;2.67;;;;;;;15.96;100.00;101245.09;5043002;28;20442;-89
2022/10/05 10:58:53;;;;;;;2.73;2.30;;;;;;;16.01;100.00;101228.22;5044315;28;20203;-91
2022/10/05 11:01:34;;;;;;;3.57;2.20;;;;;;;13.68;100.00;100865.72;5045019;28;20470;-87
2022/10/05 11:04:11;;;;;;;4.10;2.70;;;;;;;15.90;100.00;101240.59;5027701;28;20946;-88
2022/10/05 11:06:56;;;;;;;3.23;2.77;;;;;;;15.85;100.00;101221.50;5046078;28;20444;-92
2022/10/05 11:10:02;;;;;;;3.13;2.73;;;;;;;15.86;100.00;101230.47;5046514;28;20890;-83
2022/10/05 11:12:59;;;;;;;3.23;2.53;;;;;;;15.90;100.00;101227.06;5026644;28;20430;-92
2022/10/05 11:15:46;;;;;;;4.13;2.97;;;;;;;15.41;100.00;101154.97;5046205;28;20961;-81
2022/10/05 11:18:38;;;;;;;3.10;2.20;;;;;;;15.97;100.00;101224.31;5045094;28;20457;-88
2022/10/05 11:21:19;;;;;;;5.33;3.10;;;;;;;15.32;100.00;101143.63;5048551;28;20458;-87
2022/10/05 11:24:04;;;;;;;4.30;2.80;;;;;;;15.93;100.00;101229.31;5025513;28;20438;-89
2022/10/05 11:26:38;;;;;;;4.27;3.13;;;;;;;15.40;100.00;101142.50;5029348;28;21030;-88
2022/10/05 11:29:10;;;;;;;3.30;2.93;;;;;;;15.89;100.00;101238.97;5036077;28;20536;-87
2022/10/05 11:32:06;;;;;;;3.97;3.20;;;;;;;15.87;100.00;101234.81;5022859;28;20453;-91
2022/10/05 11:35:14;;;;;;;4.20;3.40;;;;;;;14.30;100.00;101005.31;5043820;28;20441;-88
2022/10/05 11:37:48;;;;;;;3.70;3.40;;;;;;;15.86;100.00;101223.19;5041981;28;20479;-87
2022/10/05 11:40:23;;;;;;;5.10;4.10;;;;;;;15.59;100.00;101185.56;5048667;28;20458;-90
2022/10/05 11:43:25;;;;;;;7.30;3.70;;;;;;;15.74;100.00;101220.38;5031423;28;20521;-84
2022/10/05 11:46:23;;;;;;;7.47;3.40;;;;;;;14.47;100.00;100995.63;5048192;28;20403;-90
2022/10/05 11:49:05;;;;;;;4.17;3.67;;;;;;;15.76;100.00;101203.91;5031862;28;20435;-81
2022/10/05 11:52:09;;;;;;;6.03;3.70;;;;;;;15.85;100.00;101229.63;5045548;28;20465;-90
2022/10/05 11:54:51;;;;;;;5.87;3.67;;;;;;;15.82;100.00;101232.78;5039475;28;20464;-82
2022/10/05 11:57:27;;;;;;;3.87;3.20;;;;;;;15.81;100.00;101229.25;5021241;28;20513;-92
2022/10/05 12:00:14;;;;;;;4.57;3.03;;;;;;;15.87;100.00;101222.13;5051654;28;20473;-87
2022/10/05 12:02:54;;;;;;;5.27;3.20;;;;;;;15.88;100.00;101229.19;5035847;28;20437;-86
2022/10/05 12:05:35;;;;;;;6.00;3.17;;;;;;;15.87;100.00;101224.00;5034365;28;20437;-80
2022/10/05 12:08:14;;;;;;;5.40;3.27;;;;;;;15.90;100.00;101218.97;5045335;28;20437;-88
2022/10/05 12:11:04;;;;;;;5.50;2.90;;;;;;;15.81;100.00;101221.13;5043358;28;20551;-81
2022/10/05 12:14:00;;;;;;;5.70;3.13;;;;;;;15.84;100.00;101224.44;5043653;28;20469;-86
2022/10/05 12:16:34;;;;;;;3.13;2.60;;;;;;;15.85;100.00;101237.72;5047483;28;21095;-92
2022/10/05 12:19:17;;;;;;;4.23;2.87;;;;;;;14.36;100.00;101013.34;5044014;28;20445;-87
2022/10/05 12:21:54;;;;;;;3.27;2.80;;;;;;;13.59;100.00;100850.03;5028750;28;20461;-89
2022/10/05 12:24:30;;;;;;;4.00;2.90;;;;;;;15.16;100.00;101112.59;5044545;28;20449;-92
2022/10/05 12:27:10;;;;;;;3.27;2.73;;;;;;;15.07;100.00;101074.22;5046284;28;20438;-90
2022/10/05 12:29:38;;;;;;;3.03;2.83;;;;;;;15.87;100.00;101197.78;5043096;28;20517;-89